createdAt,value
2022-12-15T00:02:38.502Z,36.93
2022-12-15T00:05:23.679Z,34.43
2022-12-15T00:08:08.083Z,32.07
2022-12-15T00:10:52.987Z,37.07
2022-12-15T00:13:38.302Z,39.37
2022-12-15T00:16:23.675Z,35.07
2022-12-15T00:19:08.168Z,37.10
2022-12-15T00:21:53.064Z,38.97
2022-12-15T00:24:37.456Z,35.33
2022-12-15T00:27:22.079Z,35.97
2022-12-15T00:30:07.413Z,35.50
2022-12-15T00:32:51.707Z,38.67
2022-12-15T00:35:36.596Z,39.00
2022-12-15T00:38:24.987Z,42.50
2022-12-15T00:40:51.195Z,37.17
2022-12-15T00:43:17.320Z,33.17
2022-12-15T00:46:02.748Z,35.60
2022-12-15T00:48:28.920Z,36.13
2022-12-15T00:50:54.805Z,33.77
2022-12-15T00:53:40.738Z,37.57
2022-12-15T00:56:26.118Z,35.67
2022-12-15T00:59:10.980Z,33.57
2022-12-15T01:01:56.819Z,35.60
2022-12-15T01:04:41.732Z,35.80
2022-12-15T01:07:26.003Z,40.20
2022-12-15T01:10:10.452Z,38.90
2022-12-15T01:12:54.819Z,37.90
2022-12-15T01:15:39.358Z,36.40
2022-12-15T01:18:24.411Z,38.23
2022-12-15T01:20:55.022Z,35.67
2022-12-15T01:23:21.144Z,40.30
2022-12-15T01:25:47.240Z,39.03
2022-12-15T01:28:15.889Z,36.70
2022-12-15T01:30:42.017Z,40.83
2022-12-15T01:33:08.795Z,38.87
2022-12-15T01:35:34.911Z,46.80
2022-12-15T01:38:01.021Z,57.33
2022-12-15T01:40:45.469Z,52.13
2022-12-15T01:43:13.047Z,48.00
2022-12-15T01:45:55.092Z,53.73
2022-12-15T01:48:29.413Z,43.73
2022-12-15T01:51:01.016Z,49.20
2022-12-15T01:53:28.752Z,51.53
2022-12-15T01:55:56.256Z,43.73
2022-12-15T01:58:22.747Z,45.63
2022-12-15T02:00:49.097Z,57.73
2022-12-15T02:03:15.566Z,49.03
2022-12-15T02:05:42.372Z,44.97
2022-12-15T02:08:08.862Z,50.03
2022-12-15T02:10:45.505Z,46.37
2022-12-15T02:13:15.972Z,42.43
2022-12-15T02:15:48.599Z,42.83
2022-12-15T02:18:21.180Z,45.17
2022-12-15T02:20:52.141Z,50.20
2022-12-15T02:23:34.187Z,39.47
2022-12-15T02:26:16.035Z,53.07
2022-12-15T02:28:52.225Z,47.90
2022-12-15T02:31:39.826Z,43.10
2022-12-15T02:34:10.909Z,50.13
2022-12-15T02:36:39.201Z,45.30
2022-12-15T02:39:05.483Z,42.50
2022-12-15T02:41:35.214Z,48.00
2022-12-15T02:44:02.114Z,49.80
2022-12-15T02:46:32.897Z,52.53
2022-12-15T02:49:04.568Z,55.17
2022-12-15T02:51:42.674Z,43.67
2022-12-15T02:54:38.349Z,50.47
2022-12-15T02:57:10.516Z,53.07
2022-12-15T02:59:40.467Z,46.60
2022-12-15T03:02:08.703Z,48.23
2022-12-15T03:04:35.025Z,52.03
2022-12-15T03:07:04.904Z,53.77
2022-12-15T03:09:31.679Z,44.17
2022-12-15T03:11:57.864Z,48.70
2022-12-15T03:14:24.951Z,47.07
2022-12-15T03:16:51.170Z,48.10
2022-12-15T03:19:18.121Z,42.03
2022-12-15T03:21:44.274Z,52.53
2022-12-15T03:24:10.549Z,54.97
2022-12-15T03:26:36.665Z,57.50
2022-12-15T03:29:03.161Z,51.03
2022-12-15T03:31:29.351Z,56.97
2022-12-15T03:33:55.533Z,52.00
2022-12-15T03:36:22.546Z,53.97
2022-12-15T03:38:48.977Z,49.10
2022-12-15T03:41:17.079Z,56.33
2022-12-15T03:43:43.250Z,54.13
2022-12-15T03:46:09.472Z,56.30
2022-12-15T03:48:35.719Z,50.47
2022-12-15T03:51:01.811Z,58.77
2022-12-15T03:53:28.880Z,60.87
2022-12-15T03:55:55.233Z,52.53
2022-12-15T03:58:21.730Z,64.00
2022-12-15T04:00:48.100Z,64.83
2022-12-15T04:03:14.340Z,61.00
2022-12-15T04:05:40.540Z,59.93
2022-12-15T04:08:06.863Z,63.37
2022-12-15T04:10:35.357Z,62.40
2022-12-15T04:13:03.479Z,58.03
2022-12-15T04:15:29.711Z,60.53
2022-12-15T04:17:56.135Z,65.73
2022-12-15T04:20:22.791Z,63.27
2022-12-15T04:22:51.213Z,56.77
2022-12-15T04:25:38.051Z,68.40
2022-12-15T04:28:23.701Z,59.83
2022-12-15T04:31:10.099Z,40.73
2022-12-15T04:33:55.878Z,72.53
2022-12-15T04:36:40.689Z,66.43
2022-12-15T04:39:25.102Z,65.57
2022-12-15T04:42:10.107Z,67.33
2022-12-15T04:44:55.272Z,65.07
2022-12-15T04:47:39.687Z,63.77
2022-12-15T04:50:24.578Z,66.30
2022-12-15T04:53:09.406Z,68.67
2022-12-15T04:55:54.407Z,60.67
2022-12-15T04:58:38.669Z,75.57
2022-12-15T05:01:23.944Z,71.37
2022-12-15T05:04:08.921Z,65.53
2022-12-15T05:06:53.330Z,79.07
2022-12-15T05:09:37.674Z,73.73
2022-12-15T05:12:22.574Z,73.80
2022-12-15T05:15:06.934Z,70.10
2022-12-15T05:17:52.016Z,80.43
2022-12-15T05:20:36.315Z,79.87
2022-12-15T05:23:20.730Z,70.20
2022-12-15T05:26:05.062Z,79.87
2022-12-15T05:28:49.408Z,70.87
2022-12-15T05:31:33.882Z,68.37
2022-12-15T05:34:05.457Z,75.40
2022-12-15T05:36:32.037Z,73.23
2022-12-15T05:38:58.137Z,75.80
2022-12-15T05:41:24.258Z,69.90
2022-12-15T05:43:50.413Z,68.23
2022-12-15T05:46:16.556Z,62.87
2022-12-15T05:48:42.737Z,76.10
2022-12-15T05:51:11.070Z,71.83
2022-12-15T05:53:38.027Z,74.10
2022-12-15T05:56:05.614Z,79.70
2022-12-15T05:58:31.769Z,81.30
2022-12-15T06:01:03.084Z,72.17
2022-12-15T06:03:29.494Z,75.57
2022-12-15T06:05:56.745Z,67.17
2022-12-15T06:08:23.687Z,71.73
2022-12-15T06:10:52.234Z,68.33
2022-12-15T06:13:19.257Z,71.57
2022-12-15T06:15:54.366Z,72.60
2022-12-15T06:18:20.562Z,60.33
2022-12-15T06:20:46.899Z,73.50
2022-12-15T06:23:15.963Z,66.63
2022-12-15T06:25:42.735Z,58.07
2022-12-15T06:28:08.850Z,61.63
2022-12-15T06:30:35.491Z,53.73
2022-12-15T06:33:01.591Z,51.73
2022-12-15T06:35:27.731Z,52.03
2022-12-15T06:37:53.875Z,50.70
2022-12-15T06:40:20.027Z,57.43
2022-12-15T06:42:46.915Z,50.17
2022-12-15T06:45:13.298Z,45.33
2022-12-15T06:47:39.404Z,47.37
2022-12-15T06:50:07.012Z,51.70
2022-12-15T06:52:33.145Z,47.33
2022-12-15T06:54:59.330Z,49.50
2022-12-15T06:57:25.493Z,49.93
2022-12-15T06:59:52.247Z,52.47
2022-12-15T07:02:21.188Z,43.83
2022-12-15T07:04:50.063Z,51.00
2022-12-15T07:07:16.182Z,53.60
2022-12-15T07:09:42.363Z,64.33
2022-12-15T07:12:09.164Z,58.17
2022-12-15T07:14:35.302Z,67.80
2022-12-15T07:17:02.071Z,53.27
2022-12-15T07:19:29.163Z,55.90
2022-12-15T07:21:56.960Z,63.70
2022-12-15T07:24:23.131Z,54.23
2022-12-15T07:26:49.224Z,59.63
2022-12-15T07:29:21.107Z,57.27
2022-12-15T07:31:49.277Z,54.83
2022-12-15T07:34:16.079Z,61.57
2022-12-15T07:36:47.046Z,60.77
2022-12-15T07:39:16.252Z,64.47
2022-12-15T07:41:42.369Z,49.70
2022-12-15T07:44:09.385Z,43.80
2022-12-15T07:46:35.684Z,48.10
2022-12-15T07:49:01.898Z,53.23
2022-12-15T07:51:28.827Z,46.07
2022-12-15T07:53:54.940Z,43.60
2022-12-15T07:56:21.092Z,51.17
2022-12-15T07:58:47.576Z,44.53
2022-12-15T08:01:14.726Z,52.43
2022-12-15T08:03:41.713Z,52.50
2022-12-15T08:06:10.477Z,55.97
2022-12-15T08:08:37.487Z,54.50
2022-12-15T08:11:04.630Z,53.83
2022-12-15T08:14:01.235Z,62.10
2022-12-15T08:16:16.910Z,57.27
2022-12-15T08:18:43.023Z,53.30
2022-12-15T08:21:09.968Z,54.23
2022-12-15T08:23:37.228Z,63.13
2022-12-15T08:26:05.083Z,56.07
2022-12-15T08:28:31.759Z,57.83
2022-12-15T08:31:02.265Z,57.57
2022-12-15T08:33:28.790Z,60.87
2022-12-15T08:35:57.545Z,63.17
2022-12-15T08:38:23.727Z,66.80
2022-12-15T08:40:50.503Z,65.23
2022-12-15T08:43:16.756Z,62.13
2022-12-15T08:45:43.510Z,65.80
2022-12-15T08:48:09.721Z,63.77
2022-12-15T08:50:35.852Z,63.53
2022-12-15T08:53:29.571Z,63.23
2022-12-15T08:55:48.182Z,64.83
2022-12-15T08:58:15.153Z,62.53
2022-12-15T09:00:41.337Z,70.33
2022-12-15T09:03:07.472Z,67.73
2022-12-15T09:05:34.257Z,76.10
2022-12-15T09:08:06.135Z,74.33
2022-12-15T09:10:32.860Z,76.07
2022-12-15T09:12:59.000Z,77.27
2022-12-15T09:15:45.453Z,71.13
2022-12-15T09:18:12.243Z,79.17
2022-12-15T09:20:38.365Z,77.17
2022-12-15T09:23:04.553Z,71.83
2022-12-15T09:25:30.716Z,73.87
2022-12-15T09:27:56.897Z,76.63
2022-12-15T09:30:23.031Z,71.67
2022-12-15T09:32:50.493Z,75.30
2022-12-15T09:35:16.882Z,75.17
2022-12-15T09:37:45.888Z,71.90
2022-12-15T09:40:16.291Z,66.07
2022-12-15T09:42:44.991Z,70.73
2022-12-15T09:45:17.697Z,73.23
2022-12-15T09:47:47.372Z,72.33
2022-12-15T09:50:15.149Z,73.63
2022-12-15T09:52:47.257Z,84.83
2022-12-15T09:55:19.784Z,83.50
2022-12-15T09:57:49.858Z,76.43
2022-12-15T10:00:20.491Z,83.30
2022-12-15T10:03:15.530Z,78.17
2022-12-15T10:08:41.223Z,72.60
2022-12-15T10:11:19.965Z,85.93
2022-12-15T10:13:51.933Z,85.13
2022-12-15T10:16:22.283Z,81.63
2022-12-15T10:18:59.452Z,83.97
2022-12-15T10:21:30.709Z,79.37
2022-12-15T10:23:59.387Z,80.43
2022-12-15T10:26:26.682Z,91.20
2022-12-15T10:29:05.920Z,80.47
2022-12-15T10:31:34.992Z,88.87
2022-12-15T10:34:10.022Z,81.70
2022-12-15T10:36:36.835Z,89.37
2022-12-15T10:39:03.042Z,89.93
2022-12-15T10:41:32.438Z,81.20
2022-12-15T10:43:58.748Z,78.20
2022-12-15T10:46:26.587Z,80.97
2022-12-15T10:48:56.013Z,78.80
2022-12-15T10:51:26.760Z,89.00
2022-12-15T10:53:57.280Z,82.47
2022-12-15T10:56:32.410Z,86.77
2022-12-15T10:59:01.311Z,92.10
2022-12-15T11:01:29.055Z,92.17
2022-12-15T11:03:56.048Z,83.17
2022-12-15T11:06:24.270Z,98.43
2022-12-15T11:08:51.601Z,87.83
2022-12-15T11:11:50.619Z,86.10
2022-12-15T11:14:19.615Z,87.43
2022-12-15T11:16:51.639Z,81.77
2022-12-15T11:19:28.054Z,89.60
2022-12-15T11:21:59.045Z,93.23
2022-12-15T11:24:32.554Z,93.90
2022-12-15T11:27:04.163Z,83.83
2022-12-15T11:29:46.289Z,84.07
2022-12-15T11:32:18.374Z,88.07
2022-12-15T11:34:45.763Z,89.93
2022-12-15T11:37:37.238Z,92.17
2022-12-15T11:40:35.004Z,91.70
2022-12-15T11:43:12.473Z,86.43
2022-12-15T11:45:43.751Z,88.03
2022-12-15T11:48:12.543Z,88.93
2022-12-15T11:50:43.878Z,78.13
2022-12-15T11:53:18.758Z,94.97
2022-12-15T11:55:51.561Z,87.27
2022-12-15T11:58:36.496Z,88.00
2022-12-15T12:01:10.295Z,88.93
2022-12-15T12:03:47.328Z,90.10
2022-12-15T12:06:16.931Z,87.77
2022-12-15T12:08:54.811Z,95.13
2022-12-15T12:11:27.107Z,82.20
2022-12-15T12:14:11.888Z,87.27
2022-12-15T12:16:44.045Z,85.07
2022-12-15T12:19:11.413Z,81.77
2022-12-15T12:21:40.572Z,75.13
2022-12-15T12:24:12.836Z,86.00
2022-12-15T12:26:41.911Z,82.37
2022-12-15T12:29:15.290Z,90.93
2022-12-15T12:31:50.764Z,90.03
2022-12-15T12:34:19.571Z,86.63
2022-12-15T12:36:48.960Z,87.97
2022-12-15T12:39:18.330Z,77.63
2022-12-15T12:41:48.525Z,77.47
2022-12-15T12:44:24.474Z,71.47
2022-12-15T12:46:52.580Z,77.70
2022-12-15T12:49:27.302Z,74.23
2022-12-15T12:51:54.876Z,73.67
2022-12-15T12:54:42.993Z,70.87
2022-12-15T12:57:38.133Z,76.47
2022-12-15T13:00:17.870Z,67.40
2022-12-15T13:03:17.000Z,71.27
2022-12-15T13:05:45.147Z,65.40
2022-12-15T13:08:51.373Z,70.97
2022-12-15T13:11:54.472Z,70.00
2022-12-15T13:14:27.537Z,78.40
2022-12-15T13:17:24.877Z,72.63
2022-12-15T13:20:10.144Z,72.10
2022-12-15T13:22:38.320Z,67.23
2022-12-15T13:25:26.736Z,69.47
2022-12-15T13:28:01.508Z,65.83
2022-12-15T13:30:27.833Z,69.70
2022-12-15T13:33:13.655Z,63.53
2022-12-15T13:35:40.734Z,67.90
2022-12-15T13:38:16.452Z,69.47
2022-12-15T13:40:53.282Z,66.33
2022-12-15T13:43:39.898Z,71.40
2022-12-15T13:46:11.343Z,67.23
2022-12-15T13:48:40.539Z,67.13
2022-12-15T13:51:24.127Z,65.87
2022-12-15T13:53:55.372Z,77.30
2022-12-15T13:56:47.574Z,73.50
2022-12-15T13:59:22.628Z,70.23
2022-12-15T14:01:51.100Z,73.13
2022-12-15T14:04:18.964Z,61.27
2022-12-15T14:06:47.863Z,67.03
2022-12-15T14:09:26.936Z,66.90
2022-12-15T14:11:54.295Z,74.77
2022-12-15T14:14:23.787Z,68.93
2022-12-15T14:16:56.038Z,72.37
2022-12-15T14:19:22.958Z,65.67
2022-12-15T14:21:50.806Z,66.83
2022-12-15T14:24:41.775Z,65.47
2022-12-15T14:27:07.945Z,73.77
2022-12-15T14:29:34.076Z,64.33
2022-12-15T14:32:00.627Z,76.13
2022-12-15T14:34:29.963Z,82.43
2022-12-15T14:36:58.035Z,83.80
2022-12-15T14:39:28.648Z,76.47
2022-12-15T14:41:56.394Z,76.37
2022-12-15T14:44:38.403Z,75.17
2022-12-15T14:47:06.765Z,72.40
2022-12-15T14:49:39.323Z,75.60
2022-12-15T14:52:05.976Z,80.60
2022-12-15T14:54:35.444Z,74.47
2022-12-15T14:57:03.438Z,79.70
2022-12-15T14:59:32.635Z,74.17
2022-12-15T15:02:06.280Z,69.43
2022-12-15T15:04:34.225Z,68.10
2022-12-15T15:07:02.092Z,73.00
2022-12-15T15:09:30.478Z,75.30
2022-12-15T15:12:00.267Z,71.97
2022-12-15T15:14:28.214Z,69.13
2022-12-15T15:17:03.894Z,77.50
2022-12-15T15:19:32.470Z,67.83
2022-12-15T15:22:01.515Z,71.23
2022-12-15T15:24:34.495Z,80.37
2022-12-15T15:27:26.528Z,73.20
2022-12-15T15:29:53.036Z,74.00
2022-12-15T15:32:20.400Z,65.00
2022-12-15T15:34:46.938Z,75.93
2022-12-15T15:37:18.277Z,67.23
2022-12-15T15:39:44.911Z,72.07
2022-12-15T15:42:11.830Z,75.90
2022-12-15T15:44:37.972Z,67.77
2022-12-15T15:47:04.391Z,75.30
2022-12-15T15:49:34.630Z,71.33
2022-12-15T15:52:04.509Z,70.17
2022-12-15T15:54:34.309Z,71.77
2022-12-15T15:57:00.455Z,69.47
2022-12-15T15:59:28.143Z,68.97
2022-12-15T16:01:55.453Z,64.07
2022-12-15T16:04:21.903Z,65.93
2022-12-15T16:06:48.868Z,65.57
2022-12-15T16:09:15.970Z,81.70
2022-12-15T16:11:44.149Z,67.43
2022-12-15T16:14:11.820Z,72.57
2022-12-15T16:16:37.952Z,76.73
2022-12-15T16:19:04.097Z,87.27
2022-12-15T16:21:30.242Z,81.00
2022-12-15T16:23:56.866Z,73.30
2022-12-15T16:26:26.797Z,90.27
2022-12-15T16:28:53.687Z,81.97
2022-12-15T16:31:28.426Z,91.17
2022-12-15T16:33:54.712Z,83.93
2022-12-15T16:36:21.044Z,79.17
2022-12-15T16:38:47.331Z,81.23
2022-12-15T16:41:16.201Z,91.10
2022-12-15T16:43:47.756Z,90.20
2022-12-15T16:46:15.791Z,84.00
2022-12-15T16:48:42.516Z,89.00
2022-12-15T16:51:18.073Z,118.67
2022-12-15T16:53:44.894Z,152.03
2022-12-15T16:56:13.915Z,97.73
2022-12-15T16:58:40.108Z,112.07
2022-12-15T17:01:06.254Z,112.17
2022-12-15T17:03:33.365Z,96.93
2022-12-15T17:06:01.802Z,91.23
2022-12-15T17:08:33.188Z,79.70
2022-12-15T17:10:59.731Z,76.10
2022-12-15T17:13:36.499Z,70.03
2022-12-15T17:16:06.437Z,67.03
2022-12-15T17:18:33.872Z,66.33
2022-12-15T17:21:02.312Z,73.43
2022-12-15T17:23:28.716Z,74.33
2022-12-15T17:26:22.725Z,76.27
2022-12-15T17:28:44.732Z,78.80
2022-12-15T17:31:16.280Z,73.13
2022-12-15T17:33:43.073Z,76.67
2022-12-15T17:36:14.779Z,74.23
2022-12-15T17:38:40.932Z,77.37
2022-12-15T17:41:19.196Z,87.10
2022-12-15T17:44:24.194Z,83.47
2022-12-15T17:46:42.275Z,83.60
2022-12-15T17:49:09.100Z,81.37
2022-12-15T17:51:35.260Z,83.97
2022-12-15T17:54:01.770Z,82.90
2022-12-15T17:56:28.056Z,78.00
2022-12-15T17:58:54.195Z,86.70
2022-12-15T18:01:20.477Z,81.23
2022-12-15T18:03:46.778Z,87.63
2022-12-15T18:06:14.611Z,92.90
2022-12-15T18:08:41.439Z,90.63
2022-12-15T18:11:13.908Z,94.17
2022-12-15T18:13:40.364Z,84.83
2022-12-15T18:16:07.129Z,97.07
2022-12-15T18:18:34.179Z,116.13
2022-12-15T18:21:05.203Z,114.93
2022-12-15T18:23:32.390Z,108.93
2022-12-15T18:26:02.866Z,107.07
2022-12-15T18:28:30.603Z,118.37
2022-12-15T18:30:59.871Z,102.00
2022-12-15T18:33:28.194Z,92.07
2022-12-15T18:35:55.555Z,90.57
2022-12-15T18:38:23.495Z,88.43
2022-12-15T18:40:51.653Z,82.97
2022-12-15T18:43:19.845Z,88.70
2022-12-15T18:45:46.776Z,77.93
2022-12-15T18:48:16.302Z,83.70
2022-12-15T18:50:42.452Z,75.73
2022-12-15T18:53:14.891Z,82.17
2022-12-15T18:55:41.141Z,81.67
2022-12-15T18:58:17.846Z,83.17
2022-12-15T19:00:44.298Z,85.93
2022-12-15T19:03:10.489Z,82.57
2022-12-15T19:05:36.928Z,79.03
2022-12-15T19:08:09.266Z,82.47
2022-12-15T19:10:37.285Z,82.23
2022-12-15T19:13:03.481Z,86.63
2022-12-15T19:15:31.777Z,83.63
2022-12-15T19:18:16.323Z,89.47
2022-12-15T19:21:01.201Z,86.93
2022-12-15T19:23:27.504Z,88.50
2022-12-15T19:25:53.954Z,98.37
2022-12-15T19:28:21.845Z,80.57
2022-12-15T19:30:49.673Z,78.37
2022-12-15T19:33:16.755Z,80.70
2022-12-15T19:35:44.757Z,75.17
2022-12-15T19:38:19.029Z,71.00
2022-12-15T19:40:46.747Z,73.77
2022-12-15T19:43:14.859Z,77.13
2022-12-15T19:45:41.116Z,66.33
2022-12-15T19:48:09.743Z,70.93
2022-12-15T19:50:36.874Z,75.53
2022-12-15T19:53:05.946Z,75.17
2022-12-15T19:55:33.888Z,79.33
2022-12-15T19:58:00.560Z,81.53
2022-12-15T20:00:26.816Z,91.40
2022-12-15T20:02:54.176Z,78.60
2022-12-15T20:05:21.544Z,96.00
2022-12-15T20:07:48.081Z,101.10
2022-12-15T20:10:24.363Z,110.60
2022-12-15T20:12:53.961Z,122.13
2022-12-15T20:15:21.818Z,100.00
2022-12-15T20:17:49.804Z,94.40
2022-12-15T20:20:18.012Z,78.57
2022-12-15T20:22:46.345Z,74.87
2022-12-15T20:25:16.086Z,76.20
2022-12-15T20:27:42.614Z,70.00
2022-12-15T20:30:17.053Z,69.87
2022-12-15T20:32:43.271Z,62.27
2022-12-15T20:35:09.579Z,75.10
2022-12-15T20:37:35.958Z,65.07
2022-12-15T20:40:03.071Z,66.87
2022-12-15T20:42:29.287Z,75.90
2022-12-15T20:44:55.559Z,62.80
2022-12-15T20:47:24.183Z,69.33
2022-12-15T20:49:51.899Z,63.13
2022-12-15T20:52:19.886Z,38.07
2022-12-15T20:54:46.378Z,96.33
2022-12-15T20:57:13.348Z,68.50
2022-12-15T20:59:39.637Z,68.40
2022-12-15T21:02:16.066Z,65.80
2022-12-15T21:04:42.524Z,57.90
2022-12-15T21:07:09.426Z,64.40
2022-12-15T21:09:35.621Z,60.30
2022-12-15T21:12:07.356Z,59.93
2022-12-15T21:14:36.154Z,76.80
2022-12-15T21:17:02.584Z,63.87
2022-12-15T21:19:29.550Z,67.33
2022-12-15T21:21:56.189Z,64.53
2022-12-15T21:24:25.053Z,67.47
2022-12-15T21:26:51.738Z,67.13
2022-12-15T21:29:22.100Z,67.20
2022-12-15T21:31:49.615Z,60.37
2022-12-15T21:34:16.221Z,75.87
2022-12-15T21:36:44.622Z,75.03
2022-12-15T21:39:12.797Z,84.27
2022-12-15T21:41:39.944Z,74.80
2022-12-15T21:44:11.880Z,80.93
2022-12-15T21:46:38.123Z,76.23
2022-12-15T21:49:13.704Z,70.97
2022-12-15T21:51:41.139Z,81.43
2022-12-15T21:54:15.145Z,76.77
2022-12-15T21:56:41.279Z,71.63
2022-12-15T21:59:11.728Z,78.53
2022-12-15T22:01:38.019Z,75.80
2022-12-15T22:04:11.450Z,68.67
2022-12-15T22:06:38.025Z,70.40
2022-12-15T22:09:04.464Z,72.17
2022-12-15T22:11:31.380Z,68.73
2022-12-15T22:14:01.505Z,71.40
2022-12-15T22:16:29.053Z,75.90
2022-12-15T22:18:57.103Z,67.43
2022-12-15T22:21:24.884Z,74.43
2022-12-15T22:23:51.085Z,65.37
2022-12-15T22:26:20.784Z,78.20
2022-12-15T22:28:47.089Z,71.37
2022-12-15T22:31:13.308Z,73.87
2022-12-15T22:33:39.736Z,63.73
2022-12-15T22:36:06.760Z,65.57
2022-12-15T22:38:34.032Z,70.93
2022-12-15T22:41:01.037Z,67.47
2022-12-15T22:43:32.603Z,65.93
2022-12-15T22:45:59.967Z,71.50
2022-12-15T22:48:29.604Z,69.93
2022-12-15T22:50:55.951Z,63.77
2022-12-15T22:53:23.284Z,69.80
2022-12-15T22:55:50.529Z,69.40
2022-12-15T22:58:23.319Z,66.27
2022-12-15T23:00:51.104Z,66.00
2022-12-15T23:03:18.656Z,63.60
2022-12-15T23:05:44.798Z,65.00
2022-12-15T23:08:10.912Z,68.60
2022-12-15T23:10:55.451Z,64.07
2022-12-15T23:13:22.280Z,61.13
2022-12-15T23:16:08.053Z,64.30
2022-12-15T23:18:36.826Z,64.77
2022-12-15T23:21:03.110Z,64.23
2022-12-15T23:23:31.439Z,68.37
2022-12-15T23:25:58.043Z,71.40
2022-12-15T23:28:25.057Z,65.40
2022-12-15T23:30:52.253Z,61.27
2022-12-15T23:33:18.710Z,62.60
2022-12-15T23:35:45.228Z,66.47
2022-12-15T23:38:11.658Z,63.50
2022-12-15T23:40:37.931Z,61.93
2022-12-15T23:43:04.184Z,68.57
2022-12-15T23:45:30.916Z,63.40
2022-12-15T23:47:57.047Z,64.33
2022-12-15T23:50:23.429Z,64.27
2022-12-15T23:52:51.979Z,71.67
2022-12-15T23:55:18.385Z,66.03
2022-12-15T23:57:44.533Z,67.83
